Time;durP1;ratioP1;P1;durP2;ratioP2;P2;SDS_P1;SDS_P2;PMS_P1;PMS_P2;Temp;Humidity;BMP_temperature;BMP_pressure;BME280_temperature;BME280_humidity;BME280_pressure;Samples;Min_cycle;Max_cycle;Signal;HPM_P1;HPM_P2
2022/11/10 00:00:41;;;;;;;12.77;3.30;;;;;;;9.03;96.79;101650.81;5052254;28;20071;-46
2022/11/10 00:03:09;;;;;;;11.45;2.90;;;;;;;9.01;97.21;101650.00;5044090;28;20043;-46
2022/11/10 00:05:38;;;;;;;11.65;3.85;;;;;;;9.01;97.49;101657.97;5052245;28;20025;-47
2022/11/10 00:08:06;;;;;;;13.48;3.15;;;;;;;9.00;97.31;101662.41;5051885;28;20025;-46
2022/11/10 00:10:32;;;;;;;15.32;3.78;;;;;;;8.98;97.26;101669.59;5050138;28;20068;-46
2022/11/10 00:13:01;;;;;;;12.88;3.60;;;;;;;8.98;97.52;101663.47;5040298;28;20100;-45
2022/11/10 00:18:10;;;;;;;14.75;3.60;;;;;;;8.95;97.72;101663.63;5050019;28;20417;-46
2022/11/10 00:20:35;;;;;;;13.60;3.50;;;;;;;8.94;97.77;101662.75;5052101;28;20037;-46
2022/11/10 00:23:00;;;;;;;15.10;3.63;;;;;;;8.92;98.00;101662.00;5040414;28;20078;-45
2022/11/10 00:25:26;;;;;;;13.85;3.28;;;;;;;8.93;98.22;101662.88;5052084;28;20386;-46
2022/11/10 00:27:51;;;;;;;14.48;4.13;;;;;;;8.92;98.17;101658.50;5051956;28;20078;-47
2022/11/10 00:30:16;;;;;;;20.27;3.65;;;;;;;8.90;98.14;101663.88;5050904;28;20370;-47
2022/11/10 00:32:42;;;;;;;16.05;3.88;;;;;;;8.89;98.15;101670.09;5051711;28;20025;-46
2022/11/10 00:35:08;;;;;;;14.15;3.83;;;;;;;8.89;98.22;101681.59;5047636;28;20022;-47
2022/11/10 00:37:33;;;;;;;14.77;3.50;;;;;;;8.87;98.26;101675.50;5051487;28;20028;-46
2022/11/10 00:39:58;;;;;;;14.43;3.50;;;;;;;8.86;98.24;101687.03;5048478;28;20021;-46
2022/11/10 00:42:23;;;;;;;16.63;3.67;;;;;;;8.88;98.62;101697.56;5045678;28;20104;-46
2022/11/10 00:44:49;;;;;;;16.65;3.80;;;;;;;8.86;98.53;101683.56;5044004;28;20390;-47
2022/11/10 00:47:14;;;;;;;16.27;3.58;;;;;;;8.87;98.88;101693.19;5050411;28;20102;-46
2022/11/10 00:49:39;;;;;;;16.67;3.67;;;;;;;8.85;98.41;101695.06;5043863;28;20498;-46
2022/11/10 00:52:04;;;;;;;18.20;4.00;;;;;;;8.83;98.63;101697.81;5046486;28;20159;-46
2022/11/10 00:54:30;;;;;;;14.40;3.95;;;;;;;8.82;98.60;101692.59;5047299;28;20032;-47
2022/11/10 00:56:55;;;;;;;13.27;3.97;;;;;;;8.81;98.57;101705.00;5053219;28;20028;-46
2022/11/10 00:59:20;;;;;;;15.93;3.90;;;;;;;8.81;98.61;101693.53;5047823;28;20104;-46
2022/11/10 01:01:45;;;;;;;12.52;3.42;;;;;;;8.80;98.75;101689.19;5055386;28;20474;-48
2022/11/10 01:04:11;;;;;;;15.75;3.65;;;;;;;8.79;98.87;101692.75;5044856;28;20029;-46
2022/11/10 01:06:36;;;;;;;10.18;3.13;;;;;;;8.79;99.00;101692.75;5053296;28;20116;-46
2022/11/10 01:09:01;;;;;;;13.65;3.50;;;;;;;8.78;99.04;101691.06;5055285;28;20031;-46
2022/11/10 01:11:27;;;;;;;12.18;3.47;;;;;;;8.76;99.00;101699.09;5054009;28;20461;-45
2022/11/10 01:13:54;;;;;;;12.88;3.92;;;;;;;8.76;99.01;101690.28;5053007;28;20033;-47
2022/11/10 01:16:25;;;;;;;13.85;3.42;;;;;;;8.77;99.04;101692.00;5054755;28;20025;-46
2022/11/10 01:18:53;;;;;;;15.93;3.50;;;;;;;8.76;99.08;101699.09;5055384;28;20025;-45
2022/11/10 01:21:20;;;;;;;19.13;3.97;;;;;;;8.76;99.10;101704.41;5050752;28;20087;-46
2022/11/10 01:23:46;;;;;;;16.38;3.65;;;;;;;8.75;99.35;101707.13;5048529;28;20040;-46
2022/11/10 01:26:11;;;;;;;16.77;3.47;;;;;;;8.75;99.44;101718.56;5053957;28;20025;-45
2022/11/10 01:28:37;;;;;;;21.70;3.92;;;;;;;8.76;99.47;101719.41;5055130;28;20025;-45
2022/11/10 01:31:06;;;;;;;15.88;3.75;;;;;;;8.76;99.85;101730.88;5044714;28;20029;-47
2022/11/10 01:33:32;;;;;;;19.55;3.97;;;;;;;8.76;99.59;101735.31;5038099;28;20076;-45
2022/11/10 01:35:57;;;;;;;16.02;3.88;;;;;;;8.74;99.45;101738.03;5037070;28;20034;-46
2022/11/10 01:38:27;;;;;;;16.58;3.38;;;;;;;8.74;99.51;101737.19;5041082;28;20421;-45
2022/11/10 01:40:52;;;;;;;17.88;3.85;;;;;;;8.75;99.49;101730.97;5051165;28;20022;-47
2022/11/10 01:43:18;;;;;;;13.73;3.53;;;;;;;8.76;99.58;101743.25;5045208;28;20031;-46
2022/11/10 01:45:49;;;;;;;16.35;4.00;;;;;;;8.75;99.72;101739.75;5053097;28;20013;-46
2022/11/10 01:48:22;;;;;;;18.05;3.60;;;;;;;8.73;99.59;101738.13;5054278;28;20151;-46
2022/11/10 01:50:48;;;;;;;16.23;3.72;;;;;;;8.73;99.51;101733.69;5040902;28;20120;-45
2022/11/10 01:53:22;;;;;;;16.02;4.07;;;;;;;8.73;99.90;101741.66;5054757;28;20053;-46
2022/11/10 01:55:48;;;;;;;15.02;3.40;;;;;;;8.73;99.57;101735.47;5053117;28;20041;-45
2022/11/10 01:58:16;;;;;;;14.15;3.58;;;;;;;8.71;100.00;101735.59;5054334;28;20025;-47
2022/11/10 02:00:42;;;;;;;18.00;3.38;;;;;;;8.72;100.00;101736.44;5042726;28;20119;-46
2022/11/10 02:03:20;;;;;;;18.60;4.38;;;;;;;8.70;100.00;101724.09;5050756;28;20605;-47
2022/11/10 02:05:45;;;;;;;17.63;3.72;;;;;;;8.68;99.82;101719.84;5051966;28;20446;-47
2022/11/10 02:08:14;;;;;;;11.85;3.03;;;;;;;8.68;100.00;101731.28;5041952;28;20167;-46
2022/11/10 02:10:40;;;;;;;18.17;3.60;;;;;;;8.67;100.00;101728.72;5051025;28;20048;-46
2022/11/10 02:13:05;;;;;;;14.57;3.70;;;;;;;8.67;100.00;101734.88;5050547;28;20025;-46
2022/11/10 02:15:30;;;;;;;16.33;3.45;;;;;;;8.66;99.81;101733.19;5053947;28;20104;-48
2022/11/10 02:17:56;;;;;;;18.17;3.97;;;;;;;8.67;99.93;101734.88;5053930;28;20021;-46
2022/11/10 02:20:21;;;;;;;15.70;4.00;;;;;;;8.66;99.89;101743.78;5048685;28;20493;-46
2022/11/10 02:22:46;;;;;;;16.48;3.35;;;;;;;8.66;100.00;101749.06;5051732;28;20033;-45
2022/11/10 02:25:19;;;;;;;19.15;3.53;;;;;;;8.65;100.00;101752.63;5053820;28;20418;-46
2022/11/10 02:27:44;;;;;;;14.18;3.33;;;;;;;8.65;100.00;101752.63;5051704;28;20033;-46
2022/11/10 02:30:10;;;;;;;14.15;3.42;;;;;;;8.64;100.00;101758.91;5053562;28;20107;-47
2022/11/10 02:32:35;;;;;;;18.05;3.38;;;;;;;8.64;100.00;101760.66;5052470;28;20098;-47
2022/11/10 02:35:01;;;;;;;18.85;3.75;;;;;;;8.63;100.00;101770.41;5046183;28;20474;-46
2022/11/10 02:37:26;;;;;;;16.48;3.63;;;;;;;8.63;100.00;101778.34;5053384;28;20032;-46
2022/11/10 02:39:51;;;;;;;15.68;4.00;;;;;;;8.63;100.00;101783.66;5045932;28;20520;-48
2022/11/10 02:42:16;;;;;;;16.25;3.60;;;;;;;8.63;99.98;101785.47;5037734;28;20021;-48
2022/11/10 02:44:42;;;;;;;14.57;3.65;;;;;;;8.62;100.00;101795.16;5044197;28;20478;-47
2022/11/10 02:47:07;;;;;;;17.50;3.42;;;;;;;8.60;100.00;101794.41;5053113;28;20025;-47
2022/11/10 02:49:32;;;;;;;20.40;3.75;;;;;;;8.61;100.00;101803.19;5052102;28;20024;-46
2022/11/10 02:51:58;;;;;;;20.60;4.07;;;;;;;8.60;100.00;101815.59;5052894;28;20043;-46
2022/11/10 02:54:23;;;;;;;22.52;3.63;;;;;;;8.60;100.00;101809.44;5048507;28;20036;-46
2022/11/10 02:56:48;;;;;;;17.15;3.50;;;;;;;8.60;100.00;101798.84;5052863;28;20067;-46
2022/11/10 02:59:14;;;;;;;15.27;3.70;;;;;;;8.58;100.00;101787.50;5049946;28;20036;-46
2022/11/10 03:01:39;;;;;;;15.05;3.67;;;;;;;8.57;100.00;101789.25;5052691;28;20075;-46
2022/11/10 03:04:05;;;;;;;16.35;3.83;;;;;;;8.54;100.00;101778.84;5053187;28;20033;-46
2022/11/10 03:06:30;;;;;;;16.40;3.85;;;;;;;8.51;100.00;101790.47;5052717;28;20022;-45
2022/11/10 03:08:56;;;;;;;19.13;3.58;;;;;;;8.51;100.00;101792.25;5052215;28;20029;-45
2022/11/10 03:11:21;;;;;;;16.67;3.80;;;;;;;8.49;100.00;101800.28;5048894;28;20105;-45
2022/11/10 03:13:47;;;;;;;18.60;3.78;;;;;;;8.49;100.00;101804.69;5053115;28;20028;-45
2022/11/10 03:16:12;;;;;;;14.68;3.20;;;;;;;8.49;100.00;101812.66;5052060;28;20394;-46
2022/11/10 03:18:37;;;;;;;16.67;3.60;;;;;;;8.47;100.00;101814.53;5042575;28;20089;-45
2022/11/10 03:21:02;;;;;;;18.30;3.95;;;;;;;8.45;100.00;101811.94;5062259;28;20047;-45
2022/11/10 03:23:28;;;;;;;13.82;3.38;;;;;;;8.44;100.00;101812.03;5049590;28;20340;-45
2022/11/10 03:25:53;;;;;;;16.08;3.58;;;;;;;8.44;100.00;101819.97;5048526;28;20048;-45
2022/11/10 03:28:18;;;;;;;13.95;3.25;;;;;;;8.43;100.00;101820.94;5052420;28;20027;-45
2022/11/10 03:30:44;;;;;;;16.63;3.97;;;;;;;8.41;100.00;101826.28;5043996;28;20030;-46
2022/11/10 03:33:09;;;;;;;15.48;3.83;;;;;;;8.40;100.00;101829.84;5052741;28;20035;-44
2022/11/10 03:35:35;;;;;;;22.83;4.43;;;;;;;8.40;100.00;101836.94;5052286;28;20056;-45
2022/11/10 03:38:00;;;;;;;18.90;4.38;;;;;;;8.38;100.00;101839.66;5051998;28;20360;-45
2022/11/10 03:40:26;;;;;;;15.65;3.72;;;;;;;8.37;100.00;101842.38;5048130;28;20036;-45
2022/11/10 03:42:51;;;;;;;17.13;3.55;;;;;;;8.37;100.00;101850.31;5036904;28;20398;-48
2022/11/10 03:45:16;;;;;;;26.45;4.30;;;;;;;8.34;100.00;101849.56;5047656;28;20025;-46
2022/11/10 03:47:48;;;;;;;18.35;4.00;;;;;;;8.33;100.00;101861.06;5051812;28;20013;-45
2022/11/10 03:50:14;;;;;;;17.70;4.13;;;;;;;8.30;100.00;101863.88;5048595;28;20029;-45
2022/11/10 03:52:42;;;;;;;18.90;3.70;;;;;;;8.29;100.00;101859.53;5052072;28;20029;-46
2022/11/10 03:55:10;;;;;;;18.48;4.15;;;;;;;8.29;100.00;101862.16;5050106;28;20059;-45
2022/11/10 03:57:36;;;;;;;15.57;3.55;;;;;;;8.27;100.00;101868.47;5043385;28;20039;-47
2022/11/10 04:00:02;;;;;;;13.65;3.78;;;;;;;8.25;100.00;101873.81;5051980;28;20107;-45
2022/11/10 04:02:27;;;;;;;14.38;3.95;;;;;;;8.24;100.00;101874.75;5052067;28;20082;-46
2022/11/10 04:10:20;;;;;;;13.85;3.28;;;;;;;8.20;100.00;101877.66;5051596;28;20059;-46
2022/11/10 04:15:41;;;;;;;17.30;4.18;;;;;;;8.19;100.00;101894.44;5045390;28;20159;-48
2022/11/10 04:18:25;;;;;;;20.08;4.35;;;;;;;8.17;100.00;101894.53;5048094;28;20036;-47
2022/11/10 04:21:01;;;;;;;18.48;4.65;;;;;;;8.15;100.00;101896.41;5051975;28;20052;-45
2022/11/10 04:23:30;;;;;;;16.35;4.13;;;;;;;8.14;100.00;101905.25;5050651;28;20025;-47
2022/11/10 04:28:44;;;;;;;13.73;3.40;;;;;;;8.14;100.00;101915.84;5055940;28;20007;-47
2022/11/10 04:31:10;;;;;;;18.27;4.10;;;;;;;8.11;100.00;101913.34;5053659;28;20032;-47
2022/11/10 04:33:36;;;;;;;19.75;4.25;;;;;;;8.11;100.00;101919.50;5056145;28;20029;-46
2022/11/10 04:36:02;;;;;;;23.15;4.75;;;;;;;8.09;100.00;101916.09;5055683;28;20029;-46
2022/11/10 04:38:27;;;;;;;21.17;4.05;;;;;;;8.09;100.00;101917.84;5055777;28;20040;-47
2022/11/10 04:40:53;;;;;;;14.43;3.58;;;;;;;8.07;100.00;101920.56;5044789;28;20037;-47
2022/11/10 04:43:18;;;;;;;14.52;3.70;;;;;;;8.07;100.00;101925.88;5048409;28;20029;-46
2022/11/10 04:45:43;;;;;;;24.20;4.13;;;;;;;8.06;100.00;101929.47;5055437;28;20485;-45
2022/11/10 04:48:08;;;;;;;15.93;4.63;;;;;;;8.06;100.00;101939.16;5049655;28;20025;-45
2022/11/10 04:50:34;;;;;;;18.60;3.67;;;;;;;8.05;100.00;101937.47;5049180;28;20025;-45
2022/11/10 04:52:59;;;;;;;20.73;4.35;;;;;;;8.04;100.00;101944.53;5051319;28;20076;-45
2022/11/10 04:55:24;;;;;;;21.13;4.18;;;;;;;8.04;100.00;101943.69;5054463;28;20463;-45
2022/11/10 04:57:50;;;;;;;17.90;4.20;;;;;;;8.03;100.00;101950.78;5055161;28;20032;-45
2022/11/10 05:00:16;;;;;;;18.83;3.90;;;;;;;8.03;100.00;101950.78;5055236;28;20133;-46
2022/11/10 05:02:41;;;;;;;25.27;4.65;;;;;;;8.03;100.00;101957.88;5047326;28;20040;-46
2022/11/10 05:05:06;;;;;;;17.98;4.22;;;;;;;8.03;100.00;101957.88;5053770;28;20639;-46
2022/11/10 05:07:32;;;;;;;17.05;3.83;;;;;;;8.02;100.00;101958.78;5055417;28;20032;-45
2022/11/10 05:09:57;;;;;;;17.25;3.78;;;;;;;8.01;100.00;101954.41;5045145;28;20083;-45
2022/11/10 05:12:22;;;;;;;18.42;4.20;;;;;;;8.00;100.00;101966.78;5055145;28;20043;-46
2022/11/10 05:14:47;;;;;;;22.20;4.18;;;;;;;8.01;100.00;101979.09;5054933;28;20850;-46
2022/11/10 05:17:13;;;;;;;21.67;4.35;;;;;;;8.00;100.00;101979.19;5051173;28;20502;-46
2022/11/10 05:19:38;;;;;;;20.35;4.25;;;;;;;7.99;100.00;101980.94;5053242;28;20017;-45
2022/11/10 05:22:04;;;;;;;20.48;4.25;;;;;;;8.00;100.00;101984.47;5054926;28;20033;-45
2022/11/10 05:24:30;;;;;;;21.33;4.43;;;;;;;7.97;100.00;101981.00;5053215;28;20087;-45
2022/11/10 05:26:55;;;;;;;19.58;4.10;;;;;;;7.99;100.00;101985.38;5055172;28;20417;-45
2022/11/10 05:29:20;;;;;;;20.40;4.00;;;;;;;7.97;100.00;101982.81;5054730;28;20017;-46
2022/11/10 05:31:45;;;;;;;18.77;4.20;;;;;;;7.97;100.00;101988.09;5047467;28;20033;-46
2022/11/10 05:34:11;;;;;;;18.30;3.75;;;;;;;7.95;100.00;101990.81;5052821;28;20025;-45
2022/11/10 05:36:36;;;;;;;18.40;4.13;;;;;;;7.95;100.00;101987.31;5054750;28;20029;-45
2022/11/10 05:39:01;;;;;;;19.80;4.28;;;;;;;7.93;100.00;101974.16;5052062;28;20040;-45
2022/11/10 05:41:26;;;;;;;19.08;3.38;;;;;;;7.92;100.00;101961.84;5035480;28;20078;-45
2022/11/10 05:43:52;;;;;;;16.77;3.60;;;;;;;7.90;100.00;101962.88;5050708;28;20036;-45
2022/11/10 05:46:17;;;;;;;18.60;3.92;;;;;;;7.89;100.00;101972.59;5055114;28;20020;-45
2022/11/10 05:48:42;;;;;;;21.42;4.07;;;;;;;7.88;100.00;101985.91;5054614;28;20111;-45
2022/11/10 05:51:07;;;;;;;16.13;3.90;;;;;;;7.87;100.00;101992.09;5054518;28;20025;-47
2022/11/10 05:53:33;;;;;;;15.63;3.90;;;;;;;7.85;100.00;101991.34;5051577;28;20025;-45
2022/11/10 05:55:58;;;;;;;14.88;3.75;;;;;;;7.85;100.00;102008.06;5054725;28;20028;-45
2022/11/10 05:58:24;;;;;;;12.50;3.67;;;;;;;7.83;100.00;101996.69;5052961;28;20060;-45
2022/11/10 06:00:49;;;;;;;16.50;3.97;;;;;;;7.83;100.00;102001.09;5054286;28;20112;-45
2022/11/10 06:03:17;;;;;;;16.33;3.97;;;;;;;7.81;100.00;101998.56;5054034;28;20029;-46
2022/11/10 06:05:43;;;;;;;16.48;3.95;;;;;;;7.80;100.00;102004.75;5046855;28;20061;-45
2022/11/10 06:08:08;;;;;;;17.05;4.05;;;;;;;7.80;100.00;102011.84;5054140;28;20052;-45
2022/11/10 06:10:35;;;;;;;16.23;4.10;;;;;;;7.79;100.00;102016.25;5054183;28;20416;-46
2022/11/10 06:13:01;;;;;;;16.67;3.65;;;;;;;7.78;100.00;102022.50;5052561;28;20037;-46
2022/11/10 06:15:27;;;;;;;18.48;4.03;;;;;;;7.76;100.00;102030.50;5054227;28;20064;-45
2022/11/10 06:17:53;;;;;;;20.17;4.15;;;;;;;7.76;100.00;102037.56;5053643;28;20111;-48
2022/11/10 06:20:19;;;;;;;16.85;3.80;;;;;;;7.74;100.00;102031.47;5054224;28;20075;-47
2022/11/10 06:22:59;;;;;;;18.35;3.88;;;;;;;7.74;100.00;102027.06;5048725;28;20029;-47
2022/11/10 06:25:26;;;;;;;21.17;3.90;;;;;;;7.71;100.00;102040.44;5053893;28;20057;-48
2022/11/10 06:27:51;;;;;;;18.63;3.70;;;;;;;7.69;100.00;102030.84;5043662;28;20045;-46
2022/11/10 06:30:16;;;;;;;16.88;3.85;;;;;;;7.69;100.00;102036.97;5054271;28;20021;-48
2022/11/10 06:32:43;;;;;;;15.13;4.03;;;;;;;7.68;100.00;102042.38;5053402;28;20112;-47
2022/11/10 06:35:08;;;;;;;15.95;3.70;;;;;;;7.66;100.00;102049.47;5043926;28;20095;-47
2022/11/10 06:37:33;;;;;;;18.27;4.22;;;;;;;7.65;100.00;102056.56;5053347;28;20453;-45
2022/11/10 06:39:58;;;;;;;18.23;4.15;;;;;;;7.65;100.00;102061.00;5053660;28;20029;-47
2022/11/10 06:42:24;;;;;;;18.80;4.22;;;;;;;7.64;100.00;102061.91;5039354;28;20108;-47
2022/11/10 06:44:49;;;;;;;20.63;4.25;;;;;;;7.62;100.00;102077.00;5053037;28;20033;-47
2022/11/10 06:47:15;;;;;;;17.73;4.15;;;;;;;7.60;100.00;102070.00;5053388;28;20025;-48
2022/11/10 06:49:40;;;;;;;18.40;3.75;;;;;;;7.60;100.00;102075.28;5051918;28;20078;-47
2022/11/10 06:52:06;;;;;;;21.17;4.72;;;;;;;7.60;100.00;102083.22;5050776;28;20021;-47
2022/11/10 06:54:31;;;;;;;17.60;4.10;;;;;;;7.61;100.00;102094.66;5052166;28;20029;-45
2022/11/10 06:56:56;;;;;;;17.35;4.07;;;;;;;7.59;100.00;102092.09;5053371;28;20025;-48
2022/11/10 06:59:21;;;;;;;20.50;3.92;;;;;;;7.60;100.00;102090.28;5053522;28;20029;-48
2022/11/10 07:01:47;;;;;;;19.35;3.88;;;;;;;7.62;100.00;102091.06;5053315;28;20075;-47
2022/11/10 07:04:14;;;;;;;15.60;3.53;;;;;;;7.60;100.00;102091.13;5052416;28;20067;-46
2022/11/10 07:06:40;;;;;;;13.63;3.70;;;;;;;7.62;100.00;102096.38;5052880;28;20044;-48
2022/11/10 07:09:05;;;;;;;15.88;4.13;;;;;;;7.62;100.00;102098.16;5053148;28;20479;-46
2022/11/10 07:11:30;;;;;;;16.77;3.97;;;;;;;7.63;100.00;102103.38;5052680;28;20048;-45
2022/11/10 07:13:56;;;;;;;23.30;4.40;;;;;;;7.64;100.00;102101.59;5051683;28;20028;-45
2022/11/10 07:16:21;;;;;;;14.43;3.60;;;;;;;7.64;100.00;102109.50;5052709;28;20868;-48
2022/11/10 07:18:47;;;;;;;20.35;3.88;;;;;;;7.65;100.00;102125.31;5052965;28;20033;-46
2022/11/10 07:21:12;;;;;;;22.17;3.72;;;;;;;7.67;100.00;102119.97;5042639;28;20024;-45
2022/11/10 07:23:37;;;;;;;22.08;4.30;;;;;;;7.67;100.00;102123.47;5040905;28;20041;-46
2022/11/10 07:26:02;;;;;;;21.48;4.25;;;;;;;7.68;100.00;102119.91;5048108;28;20094;-45
2022/11/10 07:28:28;;;;;;;22.25;4.07;;;;;;;7.70;100.00;102136.56;5048326;28;20398;-47
2022/11/10 07:30:53;;;;;;;18.67;3.92;;;;;;;7.73;100.00;102144.34;5041279;28;20021;-46
2022/11/10 07:33:19;;;;;;;21.52;4.20;;;;;;;7.75;100.00;102158.38;5045914;28;20103;-46
2022/11/10 07:35:51;;;;;;;22.10;4.38;;;;;;;7.79;100.00;102156.44;5037183;28;20398;-45
2022/11/10 07:38:17;;;;;;;25.55;4.60;;;;;;;7.81;100.00;102156.38;5036348;28;20483;-45
2022/11/10 07:40:42;;;;;;;18.00;4.07;;;;;;;7.84;100.00;102145.66;5037082;28;20064;-45
2022/11/10 07:43:07;;;;;;;16.13;3.90;;;;;;;7.88;100.00;102152.56;5034324;28;20103;-46
2022/11/10 07:45:32;;;;;;;16.67;4.07;;;;;;;7.91;100.00;102152.38;5034913;28;20075;-46
2022/11/10 07:48:02;;;;;;;13.10;3.47;;;;;;;7.94;100.00;102153.13;5039234;28;20127;-46
2022/11/10 07:50:28;;;;;;;16.70;3.92;;;;;;;7.97;100.00;102152.97;5047506;28;20029;-47
2022/11/10 07:53:05;;;;;;;23.63;4.32;;;;;;;8.01;100.00;102158.13;5036956;28;20060;-45
2022/11/10 07:55:30;;;;;;;18.35;4.00;;;;;;;8.05;100.00;102154.44;5034526;28;20383;-45
2022/11/10 07:57:57;;;;;;;13.73;4.00;;;;;;;8.09;100.00;102161.31;5034598;28;20037;-46
2022/11/10 08:00:22;;;;;;;16.33;4.40;;;;;;;8.11;100.00;102162.97;5033144;28;20116;-45
2022/11/10 08:02:47;;;;;;;26.67;4.40;;;;;;;8.16;100.00;102176.00;5032390;28;20571;-47
2022/11/10 08:05:12;;;;;;;17.52;4.15;;;;;;;8.19;100.00;102178.47;5034414;28;20125;-46
2022/11/10 08:07:39;;;;;;;20.67;4.50;;;;;;;8.24;100.00;102176.47;5043479;28;20104;-46
2022/11/10 08:10:05;;;;;;;20.85;4.43;;;;;;;8.28;100.00;102183.38;5048267;28;20040;-45
2022/11/10 08:12:32;;;;;;;27.52;4.43;;;;;;;8.34;100.00;102191.03;5037175;28;20073;-46
2022/11/10 08:14:57;;;;;;;16.48;3.95;;;;;;;8.39;100.00;102189.94;5038031;28;20029;-46
2022/11/10 08:17:22;;;;;;;18.83;4.18;;;;;;;8.45;100.00;102202.94;5035205;28;20021;-46
2022/11/10 08:19:47;;;;;;;16.00;3.85;;;;;;;8.49;100.00;102208.03;5039128;28;20049;-45
2022/11/10 08:22:13;;;;;;;23.25;5.03;;;;;;;8.56;100.00;102202.44;5046821;28;20036;-46
2022/11/10 08:24:38;;;;;;;21.65;5.90;;;;;;;8.59;100.00;102197.84;5038674;28;20037;-46
2022/11/10 08:27:04;;;;;;;19.23;4.32;;;;;;;8.64;100.00;102208.25;5048106;28;20478;-46
2022/11/10 08:29:29;;;;;;;21.83;4.93;;;;;;;8.68;100.00;102209.84;5048254;28;20098;-46
2022/11/10 08:31:54;;;;;;;23.00;4.65;;;;;;;8.71;100.00;102220.28;5046293;28;20107;-47
2022/11/10 08:34:21;;;;;;;20.67;4.60;;;;;;;8.75;100.00;102208.59;5051377;28;20367;-47
2022/11/10 08:36:46;;;;;;;18.30;4.53;;;;;;;8.78;100.00;102216.41;5046332;28;20541;-47
2022/11/10 08:39:11;;;;;;;15.68;4.43;;;;;;;8.84;100.00;102224.09;5051646;28;20025;-47
2022/11/10 08:41:36;;;;;;;19.08;4.05;;;;;;;8.90;100.00;102212.31;5045402;28;20048;-47
2022/11/10 08:44:02;;;;;;;18.00;4.03;;;;;;;8.96;100.00;102212.03;5042760;28;20143;-46
2022/11/10 08:46:27;;;;;;;14.30;4.22;;;;;;;9.03;100.00;102218.75;5034172;28;20030;-47
2022/11/10 08:48:52;;;;;;;23.55;4.72;;;;;;;9.09;100.00;102220.25;5033273;28;20026;-46
2022/11/10 08:51:17;;;;;;;20.02;4.95;;;;;;;9.16;100.00;102224.34;5032741;28;20390;-47
2022/11/10 08:53:43;;;;;;;14.23;4.70;;;;;;;9.24;100.00;102229.25;5043288;28;20032;-46
2022/11/10 08:56:08;;;;;;;22.92;4.20;;;;;;;9.33;100.00;102227.97;5036399;28;20053;-47
2022/11/10 08:58:33;;;;;;;19.45;3.97;;;;;;;9.43;100.00;102238.03;5050146;28;20394;-46
2022/11/10 09:00:59;;;;;;;19.85;3.90;;;;;;;9.52;100.00;102234.03;5051920;28;20031;-47
2022/11/10 09:03:24;;;;;;;19.90;4.45;;;;;;;9.64;100.00;102232.56;5050124;28;20486;-46
2022/11/10 09:05:51;;;;;;;20.25;4.22;;;;;;;9.75;100.00;102235.53;5046730;28;20040;-46
2022/11/10 09:08:16;;;;;;;17.95;4.00;;;;;;;9.87;100.00;102236.72;5042123;28;20033;-46
2022/11/10 09:10:45;;;;;;;22.52;4.10;;;;;;;9.97;100.00;102247.72;5041296;28;20090;-46
2022/11/10 09:13:12;;;;;;;15.65;3.80;;;;;;;10.10;100.00;102254.09;5039116;28;20096;-48
2022/11/10 09:15:37;;;;;;;15.80;4.22;;;;;;;10.21;99.28;102252.69;5052837;28;20098;-47
2022/11/10 09:18:04;;;;;;;22.63;4.65;;;;;;;10.32;99.00;102260.97;5050211;28;20486;-45
2022/11/10 09:20:32;;;;;;;15.82;4.18;;;;;;;10.43;98.45;102258.63;5053318;28;20028;-47
2022/11/10 09:23:05;;;;;;;15.35;3.95;;;;;;;10.54;97.38;102261.56;5041839;28;20029;-46
2022/11/10 09:25:30;;;;;;;15.43;4.75;;;;;;;10.65;96.74;102270.75;5035005;28;20029;-45
2022/11/10 09:27:55;;;;;;;17.13;3.38;;;;;;;10.77;96.58;102256.78;5035263;28;20025;-46
2022/11/10 09:30:21;;;;;;;16.38;4.50;;;;;;;10.87;95.82;102254.47;5038113;28;20037;-47
2022/11/10 09:32:52;;;;;;;16.80;3.72;;;;;;;10.99;95.67;102255.59;5035796;28;20025;-46
2022/11/10 09:35:17;;;;;;;22.08;4.45;;;;;;;11.09;94.35;102252.34;5038344;28;20021;-47
2022/11/10 09:37:43;;;;;;;17.05;3.50;;;;;;;11.21;94.44;102250.78;5037416;28;20075;-46
2022/11/10 09:40:16;;;;;;;18.20;4.10;;;;;;;11.34;94.75;102245.66;5038360;28;20025;-46
2022/11/10 09:42:43;;;;;;;15.68;3.60;;;;;;;11.47;94.03;102251.09;5033595;28;20292;-46
2022/11/10 09:45:26;;;;;;;17.13;4.05;;;;;;;11.55;92.56;102256.81;5036218;28;20033;-48
2022/11/10 09:48:00;;;;;;;20.70;4.25;;;;;;;11.66;91.96;102256.22;5038424;28;20029;-47
2022/11/10 09:51:03;;;;;;;19.67;4.00;;;;;;;11.76;91.86;102264.53;5036180;28;20052;-48
2022/11/10 09:53:38;;;;;;;19.33;3.92;;;;;;;11.87;90.24;102270.03;5039278;28;20431;-46
2022/11/10 09:56:05;;;;;;;15.73;3.83;;;;;;;11.97;89.80;102267.72;5035582;28;20070;-46
2022/11/10 09:58:40;;;;;;;16.00;3.80;;;;;;;12.09;91.17;102258.13;5033829;28;20040;-47
2022/11/10 10:01:16;;;;;;;20.95;4.35;;;;;;;12.17;88.45;102261.19;5033180;28;20037;-44
2022/11/10 10:03:51;;;;;;;16.75;3.72;;;;;;;12.26;87.95;102258.00;5032936;28;20426;-46
2022/11/10 10:06:18;;;;;;;15.88;4.53;;;;;;;12.33;87.65;102264.66;5032274;28;20037;-46
2022/11/10 10:08:52;;;;;;;18.05;3.45;;;;;;;12.46;88.70;102264.75;5033174;28;20025;-46
2022/11/10 10:11:42;;;;;;;19.58;4.30;;;;;;;12.55;87.24;102268.66;5036840;28;20037;-47
2022/11/10 10:14:23;;;;;;;15.50;4.18;;;;;;;12.62;86.00;102269.13;5035960;28;20080;-47
2022/11/10 10:16:56;;;;;;;14.50;3.70;;;;;;;12.72;86.12;102268.47;5034467;28;20018;-45
2022/11/10 10:19:41;;;;;;;15.55;4.10;;;;;;;12.83;86.68;102274.94;5038228;28;20036;-44
2022/11/10 10:22:33;;;;;;;16.13;3.45;;;;;;;12.90;84.79;102279.75;5035210;28;20026;-45
2022/11/10 10:25:02;;;;;;;14.18;3.30;;;;;;;12.99;83.41;102289.00;5032100;28;20467;-46
2022/11/10 10:27:31;;;;;;;13.25;3.47;;;;;;;13.09;83.46;102292.78;5034551;28;20036;-46
2022/11/10 10:29:56;;;;;;;13.43;3.70;;;;;;;13.19;83.00;102293.06;5036044;28;20026;-49
2022/11/10 10:32:22;;;;;;;15.30;3.92;;;;;;;13.31;83.31;102299.41;5036014;28;20026;-46
2022/11/10 10:34:47;;;;;;;15.13;3.53;;;;;;;13.38;81.43;102305.22;5041906;28;20466;-45
2022/11/10 10:37:24;;;;;;;17.17;3.72;;;;;;;13.48;81.79;102314.34;5048719;28;20030;-45
2022/11/10 10:39:54;;;;;;;13.98;3.40;;;;;;;13.58;81.22;102318.13;5042357;28;20167;-46
2022/11/10 10:42:32;;;;;;;16.15;3.28;;;;;;;13.63;80.24;102325.84;5047472;28;20501;-45
2022/11/10 10:45:20;;;;;;;20.65;4.07;;;;;;;13.69;81.81;102330.78;5047215;28;20036;-45
2022/11/10 10:47:48;;;;;;;12.38;2.85;;;;;;;13.78;80.08;102331.97;5035056;28;20496;-46
2022/11/10 10:50:34;;;;;;;12.35;2.92;;;;;;;13.86;80.77;102341.19;5036288;28;20060;-46
2022/11/10 10:53:16;;;;;;;13.80;3.55;;;;;;;13.91;79.50;102346.22;5046006;28;20028;-45
2022/11/10 10:55:51;;;;;;;23.20;4.40;;;;;;;13.99;78.86;102332.31;5050661;28;20032;-45
2022/11/10 10:58:27;;;;;;;12.02;2.95;;;;;;;14.09;78.74;102340.59;5046733;28;20033;-46
2022/11/10 11:01:03;;;;;;;14.27;3.92;;;;;;;14.18;78.15;102345.31;5050032;28;20036;-45
2022/11/10 11:03:43;;;;;;;12.65;3.40;;;;;;;14.25;78.04;102339.47;5050852;28;20037;-46
2022/11/10 11:06:18;;;;;;;16.48;3.50;;;;;;;14.32;76.87;102333.69;5050868;28;20031;-46
2022/11/10 11:08:53;;;;;;;14.15;3.78;;;;;;;14.34;76.65;102329.06;5049041;28;20028;-46
2022/11/10 11:11:24;;;;;;;17.65;3.53;;;;;;;14.40;76.92;102318.81;5050321;28;20037;-46
2022/11/10 11:13:50;;;;;;;14.73;3.88;;;;;;;14.50;75.79;102323.53;5044583;28;20037;-45
2022/11/10 11:16:15;;;;;;;15.35;3.20;;;;;;;14.48;73.69;102330.81;5036034;28;20475;-45
2022/11/10 11:18:40;;;;;;;12.43;4.03;;;;;;;14.53;74.85;102332.19;5035426;28;20146;-46
2022/11/10 11:21:15;;;;;;;10.43;2.78;;;;;;;14.53;73.90;102332.19;5030644;28;20034;-44
2022/11/10 11:23:58;;;;;;;10.75;2.80;;;;;;;14.59;75.01;102334.47;5035132;28;20034;-45
2022/11/10 11:26:46;;;;;;;12.93;2.75;;;;;;;14.60;75.43;102322.81;5041895;28;20382;-45
2022/11/10 11:29:22;;;;;;;12.30;3.07;;;;;;;14.67;73.60;102327.72;5047525;28;20582;-45
2022/11/10 11:32:18;;;;;;;10.55;2.72;;;;;;;14.70;74.05;102327.50;5041217;28;20053;-46
2022/11/10 11:35:06;;;;;;;9.80;2.85;;;;;;;14.76;73.06;102340.47;5045934;28;20072;-46